createdAt,value
2019-05-16T00:04:02.214Z,4.07
2019-05-16T00:09:07.975Z,4.57
2019-05-16T00:14:18.849Z,4.70
2019-05-16T00:19:30.519Z,4.63
2019-05-16T00:24:41.244Z,4.90
2019-05-16T00:29:50.765Z,4.27
2019-05-16T00:34:59.558Z,5.00
2019-05-16T00:40:08.077Z,5.30
2019-05-16T00:45:22.905Z,4.87
2019-05-16T00:50:51.197Z,4.83
2019-05-16T00:55:58.899Z,4.57
2019-05-16T01:01:08.799Z,4.33
2019-05-16T01:06:23.018Z,4.40
2019-05-16T01:11:27.746Z,4.10
2019-05-16T01:16:38.127Z,4.37
2019-05-16T01:21:50.090Z,4.70
2019-05-16T01:26:57.788Z,4.40
2019-05-16T01:32:08.400Z,4.43
2019-05-16T01:37:19.595Z,4.83
2019-05-16T01:42:28.529Z,4.60
2019-05-16T01:47:34.992Z,4.10
2019-05-16T01:52:41.727Z,4.40
2019-05-16T01:57:48.213Z,4.30
2019-05-16T02:02:59.047Z,3.80
2019-05-16T02:08:08.854Z,3.73
2019-05-16T02:13:23.321Z,3.67
2019-05-16T02:18:29.060Z,3.77
2019-05-16T02:23:38.785Z,3.70
2019-05-16T02:28:57.445Z,3.40
2019-05-16T02:34:06.953Z,3.03
2019-05-16T02:39:17.027Z,3.23
2019-05-16T02:44:31.476Z,3.30
2019-05-16T02:49:41.995Z,3.87
2019-05-16T02:54:53.486Z,3.70
2019-05-16T03:00:02.361Z,3.50
2019-05-16T03:05:12.744Z,3.80
2019-05-16T03:10:23.651Z,4.03
2019-05-16T03:15:34.499Z,4.13
2019-05-16T03:20:45.584Z,3.97
2019-05-16T03:25:53.073Z,4.00
2019-05-16T03:31:04.928Z,3.80
2019-05-16T03:36:15.259Z,3.47
2019-05-16T03:41:24.584Z,3.40
2019-05-16T03:46:32.838Z,3.83
2019-05-16T03:51:50.572Z,4.23
2019-05-16T03:57:00.518Z,3.13
2019-05-16T04:02:10.649Z,4.23
2019-05-16T04:07:21.188Z,5.60
2019-05-16T04:12:30.854Z,4.30
2019-05-16T04:17:41.630Z,4.13
2019-05-16T04:22:51.504Z,4.30
2019-05-16T04:28:01.050Z,3.37
2019-05-16T04:33:11.040Z,3.80
2019-05-16T04:38:40.823Z,3.43
2019-05-16T04:43:31.940Z,3.43
2019-05-16T04:48:41.636Z,2.60
2019-05-16T04:53:52.346Z,2.63
2019-05-16T04:59:02.040Z,2.50
2019-05-16T05:04:15.392Z,2.47
2019-05-16T05:09:22.832Z,2.30
2019-05-16T05:14:33.855Z,2.60
2019-05-16T05:19:42.030Z,2.07
2019-05-16T05:24:50.754Z,2.40
2019-05-16T05:30:03.396Z,2.67
2019-05-16T05:35:13.810Z,2.30
2019-05-16T05:40:22.725Z,2.50
2019-05-16T05:45:31.526Z,2.50
2019-05-16T05:50:41.851Z,2.13
2019-05-16T05:55:51.047Z,2.60
2019-05-16T06:00:56.991Z,2.47
2019-05-16T06:06:04.966Z,2.50
2019-05-16T06:11:13.702Z,2.53
2019-05-16T06:16:25.897Z,2.77
2019-05-16T06:21:33.216Z,2.73
2019-05-16T06:26:41.040Z,2.00
2019-05-16T06:31:49.768Z,2.67
2019-05-16T06:36:56.489Z,2.70
2019-05-16T06:42:04.006Z,2.60
2019-05-16T06:47:19.380Z,2.70
2019-05-16T06:52:24.022Z,2.72
2019-05-16T06:57:35.457Z,2.70
2019-05-16T07:02:45.099Z,2.40
2019-05-16T07:07:53.741Z,2.47
2019-05-16T07:13:01.653Z,2.50
2019-05-16T07:18:10.889Z,2.80
2019-05-16T07:23:25.783Z,2.57
2019-05-16T07:28:35.503Z,2.20
2019-05-16T07:33:45.059Z,2.60
2019-05-16T07:38:53.930Z,2.10
2019-05-16T07:44:00.989Z,2.40
2019-05-16T07:49:11.114Z,2.80
2019-05-16T07:54:15.196Z,2.37
2019-05-16T07:59:26.883Z,2.50
2019-05-16T08:04:35.517Z,2.43
2019-05-16T08:09:44.221Z,2.47
2019-05-16T08:15:00.560Z,2.63
2019-05-16T08:20:10.614Z,1.93
2019-05-16T08:25:20.127Z,1.90
2019-05-16T08:30:26.802Z,2.60
2019-05-16T08:35:36.239Z,2.40
2019-05-16T08:41:04.399Z,2.50
2019-05-16T08:45:56.098Z,2.07
2019-05-16T08:51:06.981Z,2.37
2019-05-16T08:56:15.436Z,1.83
2019-05-16T09:01:22.157Z,2.20
2019-05-16T09:06:31.646Z,2.07
2019-05-16T09:16:48.053Z,2.40
2019-05-16T09:18:38.487Z,1.97
2019-05-16T09:21:59.008Z,2.40
2019-05-16T09:27:11.514Z,2.40
2019-05-16T09:32:17.905Z,2.13
2019-05-16T09:37:22.408Z,2.20
2019-05-16T09:42:31.552Z,2.80
2019-05-16T09:47:41.982Z,2.33
2019-05-16T09:52:49.859Z,2.37
2019-05-16T09:58:00.766Z,2.10
2019-05-16T10:03:07.437Z,2.30
2019-05-16T10:08:13.466Z,2.50
2019-05-16T10:13:22.625Z,2.40
2019-05-16T10:18:31.934Z,2.20
2019-05-16T10:23:40.341Z,2.03
2019-05-16T10:28:49.337Z,1.90
2019-05-16T10:33:57.999Z,2.10
2019-05-16T10:39:07.996Z,2.17
2019-05-16T10:44:17.573Z,2.33
2019-05-16T10:49:36.496Z,2.22
2019-05-16T10:54:31.674Z,2.30
2019-05-16T10:59:57.781Z,1.90
2019-05-16T11:05:00.149Z,2.25
2019-05-16T11:10:03.179Z,2.00
2019-05-16T11:15:11.448Z,2.52
2019-05-16T11:20:23.699Z,2.65
2019-05-16T11:25:32.748Z,2.42
2019-05-16T11:30:40.556Z,2.85
2019-05-16T11:35:51.874Z,2.58
2019-05-16T11:41:00.872Z,2.35
2019-05-16T11:46:08.090Z,2.75
2019-05-16T11:51:17.617Z,3.05
2019-05-16T11:56:28.893Z,2.33
2019-05-16T12:01:38.751Z,2.60
2019-05-16T12:06:46.846Z,2.50
2019-05-16T12:11:59.684Z,2.40
2019-05-16T12:17:00.723Z,2.60
2019-05-16T12:22:09.453Z,2.77
2019-05-16T12:27:18.277Z,3.02
2019-05-16T12:32:24.453Z,2.40
2019-05-16T12:37:37.176Z,2.72
2019-05-16T12:42:47.150Z,2.52
2019-05-16T12:47:59.643Z,3.20
2019-05-16T12:53:08.086Z,2.95
2019-05-16T12:58:24.864Z,3.17
2019-05-16T13:03:30.365Z,3.05
2019-05-16T13:08:39.799Z,2.92
2019-05-16T13:14:02.324Z,2.95
2019-05-16T13:18:58.932Z,2.60
2019-05-16T13:24:10.532Z,2.52
2019-05-16T13:29:18.515Z,3.17
2019-05-16T13:34:28.188Z,4.53
2019-05-16T13:39:35.611Z,3.10
2019-05-16T13:44:44.339Z,3.08
2019-05-16T13:49:50.970Z,4.42
2019-05-16T13:54:58.620Z,3.55
2019-05-16T14:00:07.672Z,3.60
2019-05-16T14:05:17.682Z,3.70
2019-05-16T14:10:22.164Z,3.65
2019-05-16T14:15:31.904Z,3.33
2019-05-16T14:20:42.235Z,3.52
2019-05-16T14:25:48.831Z,3.80
2019-05-16T14:30:58.386Z,3.90
2019-05-16T14:36:09.086Z,3.02
2019-05-16T14:41:18.526Z,3.47
2019-05-16T14:46:27.491Z,3.77
2019-05-16T14:51:37.936Z,3.85
2019-05-16T14:56:47.360Z,3.95
2019-05-16T15:01:58.009Z,3.77
2019-05-16T15:07:06.938Z,3.98
2019-05-16T15:12:17.210Z,3.60
2019-05-16T15:17:23.071Z,3.90
2019-05-16T15:22:30.514Z,3.90
2019-05-16T15:27:44.802Z,4.25
2019-05-16T15:32:58.101Z,3.30
2019-05-16T15:38:03.471Z,3.25
2019-05-16T15:43:11.522Z,3.30
2019-05-16T15:48:19.472Z,3.33
2019-05-16T15:53:27.776Z,3.72
2019-05-16T15:58:34.218Z,2.70
2019-05-16T16:03:41.089Z,3.17
2019-05-16T16:08:47.428Z,2.72
2019-05-16T16:13:58.272Z,2.40
2019-05-16T16:19:06.740Z,2.33
2019-05-16T16:24:23.827Z,2.80
2019-05-16T16:29:33.107Z,3.00
2019-05-16T16:34:43.203Z,3.50
2019-05-16T16:39:57.611Z,4.22
2019-05-16T16:45:12.650Z,4.23
2019-05-16T16:50:20.918Z,5.15
2019-05-16T16:55:31.118Z,4.47
2019-05-16T17:00:38.115Z,4.97
2019-05-16T17:05:48.627Z,5.33
2019-05-16T17:10:54.532Z,5.53
2019-05-16T17:16:21.649Z,4.80
2019-05-16T17:21:19.163Z,5.10
2019-05-16T17:26:27.424Z,4.50
2019-05-16T17:31:38.072Z,3.80
2019-05-16T17:36:53.982Z,4.23
2019-05-16T17:42:04.654Z,4.73
2019-05-16T17:47:12.858Z,4.67
2019-05-16T17:52:24.097Z,5.03
2019-05-16T17:57:36.954Z,5.37
2019-05-16T18:02:46.512Z,5.30
2019-05-16T18:07:56.443Z,4.90
2019-05-16T18:13:02.545Z,4.50
2019-05-16T18:18:09.926Z,4.00
2019-05-16T18:23:16.612Z,3.93
2019-05-16T18:28:26.905Z,4.03
2019-05-16T18:33:36.940Z,4.10
2019-05-16T18:38:47.194Z,4.35
2019-05-16T18:43:58.802Z,4.03
2019-05-16T18:49:07.255Z,4.33
2019-05-16T18:54:13.486Z,4.20
2019-05-16T18:59:22.359Z,4.00
2019-05-16T19:04:29.328Z,4.23
2019-05-16T19:09:37.494Z,3.60
2019-05-16T19:14:47.413Z,4.23
2019-05-16T19:19:53.668Z,4.00
2019-05-16T19:25:06.976Z,3.87
2019-05-16T19:30:16.706Z,4.10
2019-05-16T19:35:27.429Z,3.73
2019-05-16T19:40:42.485Z,3.43
2019-05-16T19:45:57.418Z,3.30
2019-05-16T19:51:07.419Z,3.63
2019-05-16T19:56:17.878Z,3.40
2019-05-16T20:01:27.353Z,3.40
2019-05-16T20:06:38.143Z,3.80
2019-05-16T20:11:48.144Z,3.57
2019-05-16T20:16:56.685Z,3.73
2019-05-16T20:22:07.497Z,3.50
2019-05-16T20:27:13.474Z,4.10
2019-05-16T20:32:21.766Z,3.67
2019-05-16T20:37:31.637Z,4.27
2019-05-16T20:42:40.142Z,4.00
2019-05-16T20:47:49.037Z,4.60
2019-05-16T20:52:57.314Z,4.70
2019-05-16T20:58:16.379Z,4.73
2019-05-16T21:03:22.291Z,3.90
2019-05-16T21:08:30.442Z,4.53
2019-05-16T21:13:36.765Z,4.40
2019-05-16T21:18:50.212Z,3.87
2019-05-16T21:23:59.682Z,4.07
2019-05-16T21:29:09.169Z,4.03
2019-05-16T21:34:23.381Z,4.30
2019-05-16T21:39:32.237Z,4.13
2019-05-16T21:44:39.912Z,3.80
2019-05-16T21:49:47.232Z,5.00
2019-05-16T21:54:56.563Z,5.07
2019-05-16T22:00:02.799Z,5.07
2019-05-16T22:05:08.740Z,5.10
2019-05-16T22:10:19.138Z,5.40
2019-05-16T22:15:29.314Z,5.90
2019-05-16T22:20:35.433Z,5.70
2019-05-16T22:25:48.858Z,5.67
2019-05-16T22:30:58.566Z,5.77
2019-05-16T22:36:08.917Z,4.97
2019-05-16T22:41:18.745Z,5.77
2019-05-16T22:46:30.222Z,6.00
2019-05-16T22:51:40.124Z,7.07
2019-05-16T22:56:48.688Z,7.03
2019-05-16T23:01:57.988Z,6.47
2019-05-16T23:07:06.991Z,8.13
2019-05-16T23:12:17.600Z,8.13
2019-05-16T23:17:26.821Z,6.57
2019-05-16T23:22:36.810Z,7.67
2019-05-16T23:27:47.230Z,7.53
2019-05-16T23:32:52.068Z,10.43
2019-05-16T23:38:00.464Z,8.93
2019-05-16T23:43:07.889Z,10.27
2019-05-16T23:48:17.561Z,11.77
2019-05-16T23:53:28.298Z,9.77
2019-05-16T23:58:36.962Z,12.37
